createdAt,value
2023-04-14T00:01:40.321Z,15.40
2023-04-14T00:04:07.279Z,10.10
2023-04-14T00:06:34.227Z,13.87
2023-04-14T00:09:01.458Z,11.20
2023-04-14T00:11:28.527Z,9.20
2023-04-14T00:13:56.587Z,14.13
2023-04-14T00:16:23.500Z,12.77
2023-04-14T00:18:50.292Z,14.03
2023-04-14T00:21:17.105Z,14.60
2023-04-14T00:23:43.959Z,10.47
2023-04-14T00:26:10.740Z,11.43
2023-04-14T00:28:37.554Z,14.00
2023-04-14T00:31:04.448Z,12.17
2023-04-14T00:33:31.252Z,11.23
2023-04-14T00:35:59.025Z,11.07
2023-04-14T00:38:25.912Z,11.37
2023-04-14T00:40:52.741Z,15.93
2023-04-14T00:43:19.747Z,11.67
2023-04-14T00:45:47.728Z,9.80
2023-04-14T00:48:15.008Z,13.73
2023-04-14T00:50:41.787Z,15.17
2023-04-14T00:53:08.862Z,11.37
2023-04-14T00:55:36.357Z,9.43
2023-04-14T00:58:03.537Z,10.97
2023-04-14T01:00:31.083Z,10.73
2023-04-14T01:02:59.056Z,9.37
2023-04-14T01:05:26.420Z,12.33
2023-04-14T01:07:53.292Z,12.87
2023-04-14T01:10:20.353Z,17.90
2023-04-14T01:12:55.421Z,11.13
2023-04-14T01:15:35.732Z,9.57
2023-04-14T01:18:08.419Z,9.63
2023-04-14T01:20:40.465Z,14.07
2023-04-14T01:23:16.231Z,8.67
2023-04-14T01:26:03.503Z,9.57
2023-04-14T01:28:52.169Z,13.10
2023-04-14T01:31:28.846Z,8.07
2023-04-14T01:34:14.713Z,7.47
2023-04-14T01:36:43.874Z,7.43
2023-04-14T01:39:14.180Z,10.37
2023-04-14T01:41:44.870Z,8.77
2023-04-14T01:44:11.754Z,9.33
2023-04-14T01:46:38.718Z,13.00
2023-04-14T01:49:05.735Z,6.80
2023-04-14T01:51:32.810Z,6.50
2023-04-14T01:53:59.635Z,7.67
2023-04-14T01:56:26.793Z,8.50
2023-04-14T01:58:54.703Z,11.20
2023-04-14T02:01:21.561Z,11.33
2023-04-14T02:03:49.454Z,9.07
2023-04-14T02:06:17.418Z,12.33
2023-04-14T02:08:44.237Z,9.77
2023-04-14T02:11:12.785Z,9.43
2023-04-14T02:13:40.022Z,7.97
2023-04-14T02:16:09.055Z,6.53
2023-04-14T02:18:35.913Z,10.30
2023-04-14T02:21:02.829Z,7.67
2023-04-14T02:23:29.623Z,9.40
2023-04-14T02:26:00.928Z,6.43
2023-04-14T02:28:29.375Z,5.57
2023-04-14T02:30:56.761Z,12.87
2023-04-14T02:33:27.300Z,7.70
2023-04-14T02:36:04.756Z,8.23
2023-04-14T02:38:46.668Z,8.10
2023-04-14T02:41:25.074Z,10.00
2023-04-14T02:44:07.451Z,9.20
2023-04-14T02:46:37.722Z,11.27
2023-04-14T02:49:06.159Z,17.83
2023-04-14T02:51:36.663Z,7.27
2023-04-14T02:54:04.535Z,7.97
2023-04-14T02:56:31.355Z,7.73
2023-04-14T02:58:58.321Z,11.47
2023-04-14T03:01:25.445Z,10.03
2023-04-14T03:03:53.393Z,8.87
2023-04-14T03:06:20.368Z,8.77
2023-04-14T03:08:47.510Z,6.23
2023-04-14T03:11:15.091Z,7.00
2023-04-14T03:13:42.145Z,9.67
2023-04-14T03:16:09.610Z,6.27
2023-04-14T03:18:37.129Z,9.53
2023-04-14T03:21:05.031Z,9.77
2023-04-14T03:23:32.576Z,7.10
2023-04-14T03:25:59.474Z,9.57
2023-04-14T03:28:28.555Z,6.13
2023-04-14T03:30:55.486Z,9.47
2023-04-14T03:33:27.495Z,9.60
2023-04-14T03:35:54.348Z,5.63
2023-04-14T03:38:21.240Z,8.20
2023-04-14T03:40:48.530Z,8.43
2023-04-14T03:43:19.990Z,7.90
2023-04-14T03:45:49.323Z,6.60
2023-04-14T03:48:20.387Z,8.63
2023-04-14T03:50:48.191Z,7.70
2023-04-14T03:53:15.899Z,8.57
2023-04-14T03:55:43.809Z,7.87
2023-04-14T03:58:11.409Z,7.00
2023-04-14T04:00:38.282Z,7.90
2023-04-14T04:03:06.114Z,6.70
2023-04-14T04:05:33.758Z,7.37
2023-04-14T04:08:03.652Z,6.07
2023-04-14T04:10:34.094Z,8.87
2023-04-14T04:13:13.250Z,7.33
2023-04-14T04:15:40.127Z,9.13
2023-04-14T04:18:07.364Z,8.87
2023-04-14T04:20:35.031Z,9.93
2023-04-14T04:23:01.935Z,6.90
2023-04-14T04:25:28.744Z,10.10
2023-04-14T04:27:55.700Z,8.73
2023-04-14T04:30:22.852Z,6.93
2023-04-14T04:32:49.797Z,9.53
2023-04-14T04:35:16.814Z,11.90
2023-04-14T04:37:43.875Z,8.53
2023-04-14T04:40:11.447Z,10.77
2023-04-14T04:42:44.314Z,10.20
2023-04-14T04:45:11.329Z,9.20
2023-04-14T04:47:38.159Z,12.27
2023-04-14T04:50:05.348Z,13.13
2023-04-14T04:52:32.174Z,9.73
2023-04-14T04:54:58.942Z,12.27
2023-04-14T04:57:25.732Z,15.30
2023-04-14T04:59:52.593Z,11.37
2023-04-14T05:02:19.492Z,10.87
2023-04-14T05:04:46.448Z,14.30
2023-04-14T05:07:13.370Z,12.10
2023-04-14T05:09:40.472Z,8.07
2023-04-14T05:12:07.298Z,12.13
2023-04-14T05:14:34.109Z,11.20
2023-04-14T05:17:01.004Z,10.93
2023-04-14T05:19:27.840Z,12.17
2023-04-14T05:21:55.696Z,12.37
2023-04-14T05:24:22.551Z,9.10
2023-04-14T05:27:09.542Z,10.63
2023-04-14T05:29:36.250Z,13.50
2023-04-14T05:32:03.107Z,7.40
2023-04-14T05:34:29.904Z,14.83
2023-04-14T05:36:56.791Z,7.83
2023-04-14T05:39:24.083Z,9.93
2023-04-14T05:41:51.263Z,9.90
2023-04-14T05:44:18.036Z,11.10
2023-04-14T05:46:45.007Z,18.20
2023-04-14T05:49:11.952Z,9.53
2023-04-14T05:51:39.103Z,14.27
2023-04-14T05:54:06.158Z,7.80
2023-04-14T05:56:32.979Z,10.07
2023-04-14T05:58:59.870Z,10.30
2023-04-14T06:01:26.646Z,9.33
2023-04-14T06:03:53.762Z,12.27
2023-04-14T06:06:20.820Z,9.57
2023-04-14T06:08:47.680Z,12.73
2023-04-14T06:11:15.499Z,12.73
2023-04-14T06:13:42.304Z,9.87
2023-04-14T06:16:09.186Z,7.17
2023-04-14T06:18:36.256Z,8.73
2023-04-14T06:21:03.759Z,12.43
2023-04-14T06:23:31.647Z,16.73
2023-04-14T06:25:58.720Z,10.23
2023-04-14T06:28:26.394Z,10.13
2023-04-14T06:30:53.361Z,9.57
2023-04-14T06:33:20.222Z,9.27
2023-04-14T06:35:47.068Z,7.37
2023-04-14T06:38:13.866Z,8.03
2023-04-14T06:40:40.808Z,11.63
2023-04-14T06:43:10.883Z,10.17
2023-04-14T06:45:39.090Z,9.37
2023-04-14T06:48:08.610Z,7.40
2023-04-14T06:50:35.711Z,6.97
2023-04-14T06:53:02.514Z,8.77
2023-04-14T06:55:29.393Z,11.73
2023-04-14T06:57:57.411Z,6.87
2023-04-14T07:00:24.231Z,9.27
2023-04-14T07:02:51.086Z,8.07
2023-04-14T07:05:18.634Z,9.40
2023-04-14T07:07:45.515Z,7.53
2023-04-14T07:10:12.907Z,9.63
2023-04-14T07:12:39.778Z,7.77
2023-04-14T07:15:07.352Z,8.83
2023-04-14T07:17:36.306Z,9.20
2023-04-14T07:20:03.276Z,9.20
2023-04-14T07:22:30.146Z,11.87
2023-04-14T07:24:56.972Z,8.53
2023-04-14T07:27:24.464Z,9.53
2023-04-14T07:29:51.315Z,10.10
2023-04-14T07:32:18.462Z,7.30
2023-04-14T07:34:45.350Z,8.30
2023-04-14T07:37:12.140Z,11.03
2023-04-14T07:39:39.764Z,6.53
2023-04-14T07:42:06.815Z,12.73
2023-04-14T07:44:33.824Z,10.23
2023-04-14T07:47:00.673Z,9.67
2023-04-14T07:49:27.486Z,10.27
2023-04-14T07:51:54.290Z,10.83
2023-04-14T07:54:21.832Z,8.03
2023-04-14T07:56:48.856Z,7.87
2023-04-14T07:59:15.976Z,7.93
2023-04-14T08:01:42.915Z,12.13
2023-04-14T08:04:09.991Z,8.30
2023-04-14T08:06:37.276Z,7.10
2023-04-14T08:09:04.160Z,7.00
2023-04-14T08:11:31.175Z,10.10
2023-04-14T08:13:58.031Z,11.67
2023-04-14T08:16:25.329Z,8.77
2023-04-14T08:18:53.173Z,9.07
2023-04-14T08:21:20.853Z,10.67
2023-04-14T08:23:47.683Z,9.47
2023-04-14T08:26:14.594Z,11.10
2023-04-14T08:28:41.970Z,14.73
2023-04-14T08:31:09.001Z,12.53
2023-04-14T08:33:35.998Z,9.63
2023-04-14T08:36:04.167Z,13.27
2023-04-14T08:38:31.146Z,12.30
2023-04-14T08:40:58.099Z,10.97
2023-04-14T08:43:24.990Z,15.57
2023-04-14T08:45:51.996Z,7.77
2023-04-14T08:48:20.645Z,8.10
2023-04-14T08:50:56.709Z,8.80
2023-04-14T08:53:24.774Z,7.70
2023-04-14T08:55:51.546Z,12.77
2023-04-14T08:58:18.312Z,6.83
2023-04-14T09:00:45.373Z,10.60
2023-04-14T09:03:12.472Z,13.83
2023-04-14T09:05:40.674Z,9.80
2023-04-14T09:08:07.520Z,8.03
2023-04-14T09:10:35.751Z,5.97
2023-04-14T09:13:04.035Z,9.57
2023-04-14T09:15:31.336Z,6.90
2023-04-14T09:17:58.201Z,6.13
2023-04-14T09:20:39.707Z,6.80
2023-04-14T09:23:10.016Z,6.10
2023-04-14T09:25:38.699Z,8.67
2023-04-14T09:28:05.538Z,6.13
2023-04-14T09:30:32.621Z,6.27
2023-04-14T09:33:07.105Z,5.37
2023-04-14T09:35:48.700Z,4.67
2023-04-14T09:38:16.230Z,6.10
2023-04-14T09:40:44.271Z,6.03
2023-04-14T09:43:25.429Z,5.23
2023-04-14T09:45:52.432Z,6.70
2023-04-14T09:48:19.623Z,5.27
2023-04-14T09:51:09.792Z,6.77
2023-04-14T09:53:37.752Z,6.73
2023-04-14T09:56:06.152Z,4.70
2023-04-14T09:58:33.902Z,5.97
2023-04-14T10:01:05.792Z,4.90
2023-04-14T10:03:41.253Z,4.37
2023-04-14T10:06:10.820Z,5.87
2023-04-14T10:08:38.762Z,4.43
2023-04-14T10:11:17.913Z,5.40
2023-04-14T10:13:48.750Z,7.73
2023-04-14T10:16:15.950Z,5.60
2023-04-14T10:18:43.345Z,5.37
2023-04-14T10:21:11.433Z,7.30
2023-04-14T10:23:41.468Z,8.10
2023-04-14T10:26:09.316Z,5.20
2023-04-14T10:28:36.510Z,4.40
2023-04-14T10:31:05.039Z,5.07
2023-04-14T10:33:31.912Z,5.80
2023-04-14T10:36:00.900Z,4.37
2023-04-14T10:38:44.459Z,4.07
2023-04-14T10:41:11.591Z,4.10
2023-04-14T10:43:38.862Z,3.05
2023-04-14T10:46:09.726Z,5.07
2023-04-14T10:48:40.216Z,5.90
2023-04-14T10:51:10.618Z,5.57
2023-04-14T10:53:44.922Z,5.10
2023-04-14T10:56:12.088Z,4.80
2023-04-14T10:58:39.083Z,5.57
2023-04-14T11:01:41.129Z,4.78
2023-04-14T11:04:20.574Z,5.03
2023-04-14T11:06:47.597Z,4.78
2023-04-14T11:09:51.097Z,8.05
2023-04-14T11:12:26.256Z,5.43
2023-04-14T11:15:02.356Z,5.60
2023-04-14T11:17:30.528Z,9.98
2023-04-14T11:19:58.008Z,6.32
2023-04-14T11:22:40.917Z,4.35
2023-04-14T11:25:15.783Z,5.90
2023-04-14T11:27:43.246Z,3.05
2023-04-14T11:30:14.355Z,3.65
2023-04-14T11:32:52.341Z,3.35
2023-04-14T11:35:19.940Z,2.95
2023-04-14T11:37:46.988Z,3.38
2023-04-14T11:40:15.031Z,4.35
2023-04-14T11:42:46.803Z,4.45
2023-04-14T11:45:15.473Z,6.13
2023-04-14T11:48:00.997Z,5.28
2023-04-14T11:50:30.262Z,3.95
2023-04-14T11:53:00.744Z,5.95
2023-04-14T11:55:27.929Z,4.22
2023-04-14T11:57:55.471Z,3.38
2023-04-14T12:00:22.373Z,4.32
2023-04-14T12:02:49.488Z,5.60
2023-04-14T12:05:21.625Z,3.42
2023-04-14T12:07:49.313Z,5.88
2023-04-14T12:10:16.357Z,3.85
2023-04-14T12:12:43.179Z,2.33
2023-04-14T12:15:10.455Z,5.03
2023-04-14T12:17:37.375Z,5.00
2023-04-14T12:20:05.579Z,5.68
2023-04-14T12:22:32.452Z,5.40
2023-04-14T12:24:59.304Z,2.72
2023-04-14T12:27:27.527Z,5.53
2023-04-14T12:29:54.349Z,4.28
2023-04-14T12:32:22.805Z,3.90
2023-04-14T12:34:54.427Z,4.03
2023-04-14T12:37:25.706Z,4.38
2023-04-14T12:40:00.759Z,3.33
2023-04-14T12:42:44.105Z,9.15
2023-04-14T12:45:11.231Z,5.35
2023-04-14T12:47:38.626Z,3.03
2023-04-14T12:50:28.690Z,3.53
2023-04-14T12:53:00.723Z,4.80
2023-04-14T12:55:29.770Z,3.25
2023-04-14T12:57:59.702Z,3.22
2023-04-14T13:00:27.697Z,4.65
2023-04-14T13:02:58.433Z,3.03
2023-04-14T13:05:25.454Z,2.58
2023-04-14T13:07:52.343Z,2.80
2023-04-14T13:10:19.249Z,4.53
2023-04-14T13:12:46.317Z,1.85
2023-04-14T13:16:12.022Z,1.33
2023-04-14T13:18:00.674Z,2.70
2023-04-14T13:20:30.432Z,1.60
2023-04-14T13:22:57.222Z,3.13
2023-04-14T13:25:24.080Z,4.60
2023-04-14T13:27:51.510Z,2.53
2023-04-14T13:30:18.412Z,1.60
2023-04-14T13:32:46.111Z,3.63
2023-04-14T13:35:13.020Z,4.07
2023-04-14T13:37:41.270Z,3.27
2023-04-14T13:40:08.906Z,3.78
2023-04-14T13:42:35.771Z,3.20
2023-04-14T13:45:03.294Z,2.30
2023-04-14T13:47:30.158Z,2.97
2023-04-14T13:49:58.228Z,2.08
2023-04-14T13:52:25.012Z,3.53
2023-04-14T13:54:51.869Z,2.70
2023-04-14T13:57:18.945Z,2.53
2023-04-14T13:59:46.107Z,1.45
2023-04-14T14:02:13.003Z,1.27
2023-04-14T14:04:39.975Z,2.55
2023-04-14T14:07:06.883Z,3.85
2023-04-14T14:09:33.689Z,3.70
2023-04-14T14:12:01.554Z,2.28
2023-04-14T14:14:28.454Z,3.03
2023-04-14T14:16:56.309Z,2.28
2023-04-14T14:19:23.952Z,1.95
2023-04-14T14:21:50.924Z,2.58
2023-04-14T14:24:17.815Z,4.72
2023-04-14T14:26:44.673Z,1.92
2023-04-14T14:29:11.468Z,1.27
2023-04-14T14:31:38.341Z,2.20
2023-04-14T14:34:05.532Z,4.13
2023-04-14T14:36:32.452Z,4.45
2023-04-14T14:38:59.310Z,4.88
2023-04-14T14:41:26.279Z,3.28
2023-04-14T14:43:53.166Z,1.77
2023-04-14T14:46:19.999Z,3.55
2023-04-14T14:48:47.095Z,1.42
2023-04-14T14:51:14.011Z,1.85
2023-04-14T14:53:40.743Z,0.98
2023-04-14T14:56:07.658Z,1.70
2023-04-14T14:58:34.476Z,1.27
2023-04-14T15:01:01.387Z,1.48
2023-04-14T15:03:28.348Z,1.63
2023-04-14T15:05:58.098Z,3.75
2023-04-14T15:08:24.979Z,3.92
2023-04-14T15:10:51.936Z,1.38
2023-04-14T15:13:18.739Z,2.35
2023-04-14T15:15:45.575Z,1.48
2023-04-14T15:18:12.493Z,2.30
2023-04-14T15:20:41.265Z,2.90
2023-04-14T15:23:08.330Z,2.35
2023-04-14T15:25:35.265Z,2.17
2023-04-14T15:28:02.057Z,4.32
2023-04-14T15:30:28.992Z,2.42
2023-04-14T15:32:55.883Z,2.67
2023-04-14T15:35:22.820Z,2.28
2023-04-14T15:37:51.262Z,4.15
2023-04-14T15:40:18.180Z,2.13
2023-04-14T15:42:45.087Z,2.15
2023-04-14T15:45:11.995Z,1.90
2023-04-14T15:47:39.267Z,1.42
2023-04-14T15:50:09.328Z,0.77
2023-04-14T15:52:38.182Z,0.95
2023-04-14T15:55:05.354Z,2.42
2023-04-14T15:57:32.176Z,1.60
2023-04-14T15:59:59.785Z,3.13
2023-04-14T16:02:30.305Z,2.30
2023-04-14T16:04:58.124Z,1.00
2023-04-14T16:07:25.088Z,3.55
2023-04-14T16:09:52.158Z,3.05
2023-04-14T16:12:18.953Z,1.38
2023-04-14T16:14:46.323Z,2.10
2023-04-14T16:17:13.098Z,0.82
2023-04-14T16:19:39.869Z,1.38
2023-04-14T16:22:06.661Z,1.25
2023-04-14T16:24:33.525Z,1.00
2023-04-14T16:27:01.104Z,2.33
2023-04-14T16:29:28.699Z,1.85
2023-04-14T16:31:55.570Z,4.07
2023-04-14T16:34:22.430Z,2.22
2023-04-14T16:36:49.295Z,2.60
2023-04-14T16:39:16.137Z,1.27
2023-04-14T16:41:42.914Z,1.50
2023-04-14T16:44:09.710Z,1.90
2023-04-14T16:46:36.578Z,1.45
2023-04-14T16:49:03.954Z,1.23
2023-04-14T16:51:31.090Z,2.30
2023-04-14T16:53:57.924Z,2.63
2023-04-14T16:56:24.770Z,2.90
2023-04-14T16:58:51.724Z,4.70
2023-04-14T17:01:18.585Z,2.75
2023-04-14T17:03:45.619Z,0.85
2023-04-14T17:06:12.542Z,4.80
2023-04-14T17:08:39.625Z,3.07
2023-04-14T17:11:06.438Z,3.83
2023-04-14T17:13:33.472Z,1.65
2023-04-14T17:16:08.103Z,2.15
2023-04-14T17:18:35.524Z,4.07
2023-04-14T17:21:02.850Z,1.83
2023-04-14T17:23:29.635Z,1.52
2023-04-14T17:25:56.466Z,0.87
2023-04-14T17:28:23.606Z,1.20
2023-04-14T17:30:50.710Z,4.72
2023-04-14T17:33:19.881Z,1.40
2023-04-14T17:35:47.012Z,3.13
2023-04-14T17:38:13.874Z,1.23
2023-04-14T17:40:40.764Z,6.03
2023-04-14T17:43:07.852Z,1.27
2023-04-14T17:45:35.219Z,2.13
2023-04-14T17:48:02.163Z,2.22
2023-04-14T17:50:29.205Z,1.43
2023-04-14T17:52:56.045Z,1.27
2023-04-14T17:55:22.856Z,1.83
2023-04-14T17:57:50.404Z,5.87
2023-04-14T18:00:17.365Z,1.30
2023-04-14T18:02:44.502Z,3.50
2023-04-14T18:05:11.380Z,3.53
2023-04-14T18:07:38.486Z,6.27
2023-04-14T18:10:06.538Z,4.13
2023-04-14T18:12:33.468Z,2.73
2023-04-14T18:15:00.384Z,2.50
2023-04-14T18:17:27.551Z,3.30
2023-04-14T18:19:56.619Z,3.07
2023-04-14T18:22:23.767Z,4.10
2023-04-14T18:24:51.164Z,3.97
2023-04-14T18:29:48.191Z,4.17
2023-04-14T18:32:15.440Z,3.37
2023-04-14T18:34:42.330Z,2.93
2023-04-14T18:37:09.595Z,1.33
2023-04-14T18:39:37.458Z,1.57
2023-04-14T18:42:04.715Z,5.40
2023-04-14T18:44:31.594Z,2.27
2023-04-14T18:46:58.396Z,3.63
2023-04-14T18:49:26.028Z,2.17
2023-04-14T18:51:56.109Z,2.97
2023-04-14T18:54:22.968Z,2.67
2023-04-14T18:56:49.814Z,2.93
2023-04-14T18:59:17.293Z,2.60
2023-04-14T19:01:44.762Z,2.83
2023-04-14T19:04:11.708Z,2.43
2023-04-14T19:06:40.439Z,1.60
2023-04-14T19:09:07.369Z,1.67
2023-04-14T19:11:36.066Z,4.80
2023-04-14T19:14:05.778Z,3.57
2023-04-14T19:16:33.034Z,5.83
2023-04-14T19:19:00.291Z,4.40
2023-04-14T19:21:27.397Z,13.83
2023-04-14T19:23:56.596Z,5.13
2023-04-14T19:26:24.165Z,4.43
2023-04-14T19:28:52.908Z,4.60
2023-04-14T19:31:21.610Z,3.83
2023-04-14T19:33:49.351Z,4.87
2023-04-14T19:36:16.705Z,3.60
2023-04-14T19:38:44.133Z,3.37
2023-04-14T19:41:11.072Z,2.67
2023-04-14T19:43:37.875Z,3.73
2023-04-14T19:46:05.253Z,4.47
2023-04-14T19:48:35.215Z,4.53
2023-04-14T19:51:02.402Z,3.87
2023-04-14T19:53:29.289Z,4.90
2023-04-14T19:55:57.936Z,6.07
2023-04-14T19:58:26.146Z,4.97
2023-04-14T20:00:53.398Z,2.93
2023-04-14T20:03:20.447Z,4.40
2023-04-14T20:05:55.025Z,4.17
2023-04-14T20:08:22.780Z,2.63
2023-04-14T20:10:51.902Z,2.67
2023-04-14T20:13:19.776Z,4.03
2023-04-14T20:15:46.930Z,3.30
2023-04-14T20:18:14.712Z,6.30
2023-04-14T20:20:41.766Z,3.23
2023-04-14T20:23:09.535Z,3.70
2023-04-14T20:25:37.299Z,7.83
2023-04-14T20:28:04.646Z,4.80
2023-04-14T20:30:34.141Z,4.77
2023-04-14T20:33:04.059Z,4.07
2023-04-14T20:35:31.520Z,3.03
2023-04-14T20:37:58.444Z,3.67
2023-04-14T20:40:25.217Z,3.53
2023-04-14T20:42:51.998Z,3.57
2023-04-14T20:45:19.231Z,5.53
2023-04-14T20:47:46.673Z,5.57
2023-04-14T20:50:13.619Z,5.53
2023-04-14T20:52:40.528Z,4.27
2023-04-14T20:55:07.812Z,3.83
2023-04-14T20:57:34.671Z,4.03
2023-04-14T21:00:01.464Z,4.57
2023-04-14T21:02:28.432Z,7.90
2023-04-14T21:04:55.354Z,5.23
2023-04-14T21:07:22.182Z,10.30
2023-04-14T21:09:48.974Z,5.17
2023-04-14T21:12:16.646Z,5.07
2023-04-14T21:15:29.784Z,6.30
2023-04-14T21:17:30.738Z,4.33
2023-04-14T21:19:57.681Z,7.00
2023-04-14T21:22:24.507Z,7.23
2023-04-14T21:24:51.316Z,4.97
2023-04-14T21:27:18.252Z,5.17
2023-04-14T21:29:45.057Z,6.40
2023-04-14T21:32:12.030Z,5.97
2023-04-14T21:34:38.870Z,6.53
2023-04-14T21:37:05.783Z,6.43
2023-04-14T21:39:33.747Z,4.63
2023-04-14T21:42:01.729Z,4.43
2023-04-14T21:44:28.708Z,5.67
2023-04-14T21:46:55.875Z,4.37
2023-04-14T21:49:22.748Z,5.30
2023-04-14T21:51:52.697Z,5.83
2023-04-14T21:54:19.596Z,5.27
2023-04-14T21:56:46.420Z,5.10
2023-04-14T21:59:13.263Z,5.13
2023-04-14T22:01:41.125Z,6.23
2023-04-14T22:04:08.279Z,5.53
2023-04-14T22:06:37.914Z,6.57
2023-04-14T22:09:06.181Z,4.87
2023-04-14T22:11:33.319Z,5.87
2023-04-14T22:14:00.961Z,4.80
2023-04-14T22:16:28.749Z,5.07
2023-04-14T22:18:56.199Z,4.90
2023-04-14T22:21:23.145Z,4.70
2023-04-14T22:23:50.375Z,5.83
2023-04-14T22:26:17.217Z,5.73
2023-04-14T22:28:43.987Z,4.83
2023-04-14T22:31:10.934Z,7.47
2023-04-14T22:33:37.920Z,6.73
2023-04-14T22:36:06.693Z,6.97
2023-04-14T22:38:33.921Z,5.53
2023-04-14T22:41:01.778Z,6.20
2023-04-14T22:43:29.873Z,5.00
2023-04-14T22:45:56.794Z,7.90
2023-04-14T22:48:23.633Z,4.67
2023-04-14T22:50:50.425Z,5.43
2023-04-14T22:53:17.216Z,5.20
2023-04-14T22:55:44.370Z,3.47
2023-04-14T22:58:16.687Z,5.47
2023-04-14T23:00:44.939Z,7.70
2023-04-14T23:03:12.217Z,5.50
2023-04-14T23:05:39.301Z,7.73
2023-04-14T23:08:06.260Z,6.27
2023-04-14T23:10:33.218Z,7.23
2023-04-14T23:13:00.114Z,9.50
2023-04-14T23:15:27.603Z,8.13
2023-04-14T23:17:54.826Z,7.43
2023-04-14T23:20:21.967Z,6.57
2023-04-14T23:22:48.820Z,6.33
2023-04-14T23:25:15.811Z,7.57
2023-04-14T23:27:42.715Z,5.83
2023-04-14T23:30:10.638Z,6.20
2023-04-14T23:32:37.597Z,8.33
2023-04-14T23:35:05.476Z,7.97
2023-04-14T23:37:32.288Z,4.23
2023-04-14T23:39:59.218Z,4.80
2023-04-14T23:42:26.351Z,5.20
2023-04-14T23:44:54.151Z,5.97
2023-04-14T23:47:20.963Z,5.47
2023-04-14T23:49:47.780Z,5.40
2023-04-14T23:52:14.769Z,5.43
2023-04-14T23:54:41.809Z,4.47
2023-04-14T23:57:08.997Z,5.43
2023-04-14T23:59:36.223Z,5.47
